SAS2941 ENGM-ESSA
Flight info
| Callsign | SAS2941 |
|---|---|
| Flight time | 0h 39m |
| Altitude | 27000 |
| Route | MASEV Z183 LEGPO DCT ELTOK |
| Aircraft | A320/M-SDE3FGHIRWY/LB1 |
Departure
| Time | 2026-05-05 17:02 |
|---|---|
| Airport | Oslo-Gardermoen International Airport (ENGM) |
Arrival
| Time | 2026-05-05 17:41 |
|---|---|
| Airport | Stockholm-Arlanda Airport (ESSA) |
| Time | Latitude | Longitude | Altitude | Speed | Heading |
|---|---|---|---|---|---|
| 2026-05-05 16:30 | 60.19564 | 11.10152 | 685 ft | 0 kts | 286° |
| 2026-05-05 16:50 | 60.19562 | 11.10166 | 685 ft | 4 kts | 285° |
| 2026-05-05 16:51 | 60.19555 | 11.10218 | 681 ft | 4 kts | 284° |
| 2026-05-05 16:51 | 60.19549 | 11.10271 | 679 ft | 4 kts | 281° |
| 2026-05-05 16:51 | 60.19544 | 11.10324 | 679 ft | 4 kts | 275° |
| 2026-05-05 16:51 | 60.19544 | 11.10377 | 682 ft | 4 kts | 254° |
| 2026-05-05 16:52 | 60.19548 | 11.10398 | 683 ft | 0 kts | 241° |
| 2026-05-05 16:54 | 60.19547 | 11.10397 | 684 ft | 0 kts | 232° |
| 2026-05-05 16:54 | 60.19545 | 11.10397 | 684 ft | 0 kts | 214° |
| 2026-05-05 16:54 | 60.19542 | 11.10399 | 684 ft | 1 kts | 185° |
| 2026-05-05 16:55 | 60.19538 | 11.10418 | 683 ft | 4 kts | 119° |
| 2026-05-05 16:55 | 60.19519 | 11.10532 | 681 ft | 11 kts | 105° |
| 2026-05-05 16:55 | 60.19496 | 11.10695 | 683 ft | 13 kts | 106° |
| 2026-05-05 16:55 | 60.19468 | 11.10886 | 683 ft | 15 kts | 106° |
| 2026-05-05 16:56 | 60.19438 | 11.11103 | 683 ft | 17 kts | 105° |
| 2026-05-05 16:56 | 60.19361 | 11.11246 | 684 ft | 17 kts | 193° |
| 2026-05-05 16:56 | 60.19239 | 11.11177 | 684 ft | 19 kts | 195° |
| 2026-05-05 16:56 | 60.19103 | 11.11098 | 683 ft | 22 kts | 195° |
| 2026-05-05 16:57 | 60.18949 | 11.11010 | 681 ft | 24 kts | 196° |
| 2026-05-05 16:57 | 60.18786 | 11.10912 | 683 ft | 25 kts | 195° |
| 2026-05-05 16:57 | 60.18611 | 11.10811 | 682 ft | 27 kts | 197° |
| 2026-05-05 16:57 | 60.18424 | 11.10706 | 681 ft | 29 kts | 197° |
| 2026-05-05 16:58 | 60.18241 | 11.10600 | 680 ft | 25 kts | 196° |
| 2026-05-05 16:58 | 60.18065 | 11.10497 | 679 ft | 27 kts | 196° |
| 2026-05-05 16:58 | 60.17878 | 11.10390 | 678 ft | 29 kts | 196° |
| 2026-05-05 16:58 | 60.17700 | 11.10289 | 677 ft | 22 kts | 187° |
| 2026-05-05 16:59 | 60.17640 | 11.10445 | 675 ft | 12 kts | 110° |
| 2026-05-05 16:59 | 60.17619 | 11.10552 | 676 ft | 0 kts | 105° |
| 2026-05-05 17:00 | 60.17613 | 11.10595 | 678 ft | 10 kts | 105° |
| 2026-05-05 17:00 | 60.17624 | 11.10771 | 677 ft | 14 kts | 51° |
| 2026-05-05 17:01 | 60.17715 | 11.10858 | 678 ft | 14 kts | 15° |
| 2026-05-05 17:01 | 60.17831 | 11.10926 | 678 ft | 30 kts | 16° |
| 2026-05-05 17:01 | 60.18271 | 11.11178 | 682 ft | 99 kts | 16° |
| 2026-05-05 17:01 | 60.19109 | 11.11665 | 684 ft | 149 kts | 16° |
| 2026-05-05 17:02 | 60.20195 | 11.12309 | 983 ft | 165 kts | 14° |
| 2026-05-05 17:02 | 60.21126 | 11.13666 | 1585 ft | 174 kts | 58° |
| 2026-05-05 17:02 | 60.21440 | 11.16088 | 2076 ft | 189 kts | 78° |
| 2026-05-05 17:02 | 60.21630 | 11.18874 | 2351 ft | 212 kts | 81° |
| 2026-05-05 17:03 | 60.21817 | 11.21988 | 2646 ft | 238 kts | 80° |
| 2026-05-05 17:03 | 60.22080 | 11.25446 | 3077 ft | 261 kts | 78° |
| 2026-05-05 17:03 | 60.22396 | 11.29178 | 3680 ft | 277 kts | 78° |
| 2026-05-05 17:03 | 60.22752 | 11.32997 | 4677 ft | 278 kts | 76° |
| 2026-05-05 17:04 | 60.23160 | 11.36804 | 5673 ft | 278 kts | 75° |
| 2026-05-05 17:04 | 60.23639 | 11.40617 | 6551 ft | 284 kts | 73° |
| 2026-05-05 17:04 | 60.24163 | 11.44411 | 7000 ft | 287 kts | 73° |
| 2026-05-05 17:04 | 60.24368 | 11.48417 | 7803 ft | 293 kts | 95° |
| 2026-05-05 17:05 | 60.23760 | 11.52338 | 8627 ft | 297 kts | 122° |
| 2026-05-05 17:05 | 60.22345 | 11.55276 | 9516 ft | 293 kts | 151° |
| 2026-05-05 17:05 | 60.20477 | 11.56832 | 10269 ft | 294 kts | 166° |
| 2026-05-05 17:05 | 60.18456 | 11.58105 | 10590 ft | 315 kts | 165° |
| 2026-05-05 17:06 | 60.16310 | 11.59586 | 10856 ft | 336 kts | 163° |
| 2026-05-05 17:06 | 60.14194 | 11.61664 | 11532 ft | 343 kts | 148° |
| 2026-05-05 17:06 | 60.12226 | 11.64450 | 12214 ft | 349 kts | 144° |
| 2026-05-05 17:06 | 60.10540 | 11.67997 | 12932 ft | 356 kts | 126° |
| 2026-05-05 17:07 | 60.09396 | 11.72418 | 13630 ft | 361 kts | 109° |
| 2026-05-05 17:07 | 60.08878 | 11.77357 | 14215 ft | 366 kts | 92° |
| 2026-05-05 17:07 | 60.09070 | 11.82450 | 14749 ft | 370 kts | 75° |
| 2026-05-05 17:07 | 60.09686 | 11.87496 | 15257 ft | 376 kts | 73° |
| 2026-05-05 17:08 | 60.10333 | 11.92629 | 15759 ft | 383 kts | 73° |
| 2026-05-05 17:08 | 60.10994 | 11.97854 | 16261 ft | 390 kts | 73° |
| 2026-05-05 17:08 | 60.11664 | 12.03178 | 16774 ft | 397 kts | 73° |
| 2026-05-05 17:08 | 60.12340 | 12.08603 | 17235 ft | 405 kts | 73° |
| 2026-05-05 17:09 | 60.13027 | 12.14156 | 17666 ft | 414 kts | 73° |
| 2026-05-05 17:09 | 60.13724 | 12.19826 | 18143 ft | 422 kts | 74° |
| 2026-05-05 17:09 | 60.14427 | 12.25570 | 18564 ft | 429 kts | 74° |
| 2026-05-05 17:09 | 60.15141 | 12.31455 | 19019 ft | 435 kts | 74° |
| 2026-05-05 17:10 | 60.15858 | 12.37403 | 19460 ft | 442 kts | 74° |
| 2026-05-05 17:10 | 60.16584 | 12.43448 | 19917 ft | 448 kts | 74° |
| 2026-05-05 17:10 | 60.17231 | 12.49568 | 20542 ft | 453 kts | 81° |
| 2026-05-05 17:10 | 60.17467 | 12.55935 | 21047 ft | 458 kts | 91° |
| 2026-05-05 17:11 | 60.17236 | 12.62345 | 21479 ft | 463 kts | 99° |
| 2026-05-05 17:11 | 60.16822 | 12.68801 | 21892 ft | 469 kts | 99° |
| 2026-05-05 17:11 | 60.16404 | 12.75339 | 22297 ft | 475 kts | 99° |
| 2026-05-05 17:11 | 60.15983 | 12.81956 | 22713 ft | 481 kts | 99° |
| 2026-05-05 17:12 | 60.15552 | 12.88673 | 23139 ft | 487 kts | 100° |
| 2026-05-05 17:12 | 60.15115 | 12.95460 | 23517 ft | 493 kts | 100° |
| 2026-05-05 17:12 | 60.14675 | 13.02239 | 23869 ft | 498 kts | 100° |
| 2026-05-05 17:12 | 60.14224 | 13.09149 | 24276 ft | 501 kts | 100° |
| 2026-05-05 17:13 | 60.13765 | 13.16099 | 24691 ft | 503 kts | 100° |
| 2026-05-05 17:13 | 60.13299 | 13.23073 | 25109 ft | 506 kts | 100° |
| 2026-05-05 17:13 | 60.12826 | 13.30081 | 25503 ft | 508 kts | 100° |
| 2026-05-05 17:13 | 60.12344 | 13.37123 | 25907 ft | 510 kts | 100° |
| 2026-05-05 17:14 | 60.11860 | 13.44200 | 26236 ft | 513 kts | 101° |
| 2026-05-05 17:14 | 60.11371 | 13.51299 | 26610 ft | 516 kts | 101° |
| 2026-05-05 17:14 | 60.10876 | 13.58443 | 26827 ft | 517 kts | 101° |
| 2026-05-05 17:14 | 60.10387 | 13.65482 | 26867 ft | 506 kts | 102° |
| 2026-05-05 17:15 | 60.09895 | 13.72446 | 26865 ft | 502 kts | 102° |
| 2026-05-05 17:15 | 60.09400 | 13.79369 | 26865 ft | 501 kts | 102° |
| 2026-05-05 17:15 | 60.08901 | 13.86280 | 26870 ft | 501 kts | 102° |
| 2026-05-05 17:15 | 60.08400 | 13.93173 | 26871 ft | 501 kts | 102° |
| 2026-05-05 17:16 | 60.07894 | 14.00060 | 26873 ft | 501 kts | 102° |
| 2026-05-05 17:16 | 60.07383 | 14.06968 | 26878 ft | 501 kts | 102° |
| 2026-05-05 17:16 | 60.06872 | 14.13864 | 26883 ft | 500 kts | 103° |
| 2026-05-05 17:16 | 60.06361 | 14.20744 | 26883 ft | 499 kts | 103° |
| 2026-05-05 17:17 | 60.05848 | 14.27618 | 26883 ft | 499 kts | 103° |
| 2026-05-05 17:17 | 60.05331 | 14.34485 | 26884 ft | 499 kts | 103° |
| 2026-05-05 17:17 | 60.04805 | 14.41364 | 26888 ft | 499 kts | 103° |
| 2026-05-05 17:17 | 60.04276 | 14.48224 | 26885 ft | 499 kts | 103° |
| 2026-05-05 17:18 | 60.03689 | 14.55006 | 26881 ft | 506 kts | 106° |
| 2026-05-05 17:18 | 60.02970 | 14.62018 | 26881 ft | 510 kts | 107° |
| 2026-05-05 17:18 | 60.02254 | 14.68883 | 26872 ft | 512 kts | 107° |
| 2026-05-05 17:18 | 60.01526 | 14.75849 | 26861 ft | 512 kts | 107° |
| 2026-05-05 17:19 | 60.00810 | 14.82811 | 26883 ft | 511 kts | 107° |
| 2026-05-05 17:19 | 60.00101 | 14.89764 | 26878 ft | 509 kts | 106° |
| 2026-05-05 17:19 | 59.99469 | 14.96635 | 26875 ft | 497 kts | 104° |
| 2026-05-05 17:19 | 59.98934 | 15.03381 | 26753 ft | 486 kts | 103° |
| 2026-05-05 17:20 | 59.98454 | 15.10047 | 26317 ft | 485 kts | 103° |
| 2026-05-05 17:20 | 59.97988 | 15.16705 | 25860 ft | 484 kts | 103° |
| 2026-05-05 17:20 | 59.97514 | 15.23344 | 25411 ft | 482 kts | 103° |
| 2026-05-05 17:20 | 59.97018 | 15.29957 | 24963 ft | 482 kts | 104° |
| 2026-05-05 17:21 | 59.96499 | 15.36558 | 24532 ft | 481 kts | 104° |
| 2026-05-05 17:21 | 59.95968 | 15.43122 | 24012 ft | 474 kts | 104° |
| 2026-05-05 17:21 | 59.95443 | 15.49549 | 23545 ft | 466 kts | 104° |
| 2026-05-05 17:22 | 59.94405 | 15.62191 | 22447 ft | 457 kts | 104° |
| 2026-05-05 17:22 | 59.93894 | 15.68407 | 21905 ft | 452 kts | 104° |
| 2026-05-05 17:22 | 59.93382 | 15.74568 | 21370 ft | 445 kts | 104° |
| 2026-05-05 17:22 | 59.92878 | 15.80620 | 20843 ft | 440 kts | 104° |
| 2026-05-05 17:23 | 59.92375 | 15.86624 | 20334 ft | 439 kts | 104° |
| 2026-05-05 17:23 | 59.91871 | 15.92602 | 19818 ft | 432 kts | 103° |
| 2026-05-05 17:23 | 59.91379 | 15.98430 | 19309 ft | 425 kts | 103° |
| 2026-05-05 17:23 | 59.90896 | 16.04132 | 19068 ft | 420 kts | 104° |
| 2026-05-05 17:24 | 59.90402 | 16.09879 | 19066 ft | 422 kts | 104° |
| 2026-05-05 17:24 | 59.89899 | 16.15646 | 18933 ft | 424 kts | 104° |
| 2026-05-05 17:24 | 59.89399 | 16.21406 | 18412 ft | 418 kts | 104° |
| 2026-05-05 17:24 | 59.88907 | 16.27089 | 17865 ft | 414 kts | 104° |
| 2026-05-05 17:25 | 59.88421 | 16.32700 | 17282 ft | 407 kts | 103° |
| 2026-05-05 17:25 | 59.88106 | 16.36347 | 16894 ft | 401 kts | 103° |
| 2026-05-05 17:25 | 59.87482 | 16.43536 | 16140 ft | 387 kts | 103° |
| 2026-05-05 17:25 | 59.87024 | 16.48753 | 15590 ft | 380 kts | 102° |
| 2026-05-05 17:26 | 59.86561 | 16.53935 | 15050 ft | 380 kts | 102° |
| 2026-05-05 17:26 | 59.86092 | 16.59109 | 14513 ft | 380 kts | 101° |
| 2026-05-05 17:26 | 59.85625 | 16.64253 | 13994 ft | 378 kts | 101° |
| 2026-05-05 17:26 | 59.85160 | 16.69389 | 13433 ft | 375 kts | 101° |
| 2026-05-05 17:27 | 59.84695 | 16.74476 | 12847 ft | 372 kts | 103° |
| 2026-05-05 17:27 | 59.83933 | 16.79311 | 12251 ft | 359 kts | 111° |
| 2026-05-05 17:27 | 59.83063 | 16.83849 | 11685 ft | 344 kts | 112° |
| 2026-05-05 17:27 | 59.82211 | 16.88209 | 11125 ft | 332 kts | 112° |
| 2026-05-05 17:28 | 59.81383 | 16.92421 | 10598 ft | 322 kts | 112° |
| 2026-05-05 17:28 | 59.80573 | 16.96516 | 10160 ft | 315 kts | 112° |
| 2026-05-05 17:28 | 59.79780 | 17.00503 | 10029 ft | 305 kts | 112° |
| 2026-05-05 17:28 | 59.79009 | 17.04388 | 9796 ft | 300 kts | 112° |
| 2026-05-05 17:29 | 59.78243 | 17.08228 | 9466 ft | 298 kts | 112° |
| 2026-05-05 17:29 | 59.77478 | 17.12039 | 9118 ft | 296 kts | 112° |
| 2026-05-05 17:29 | 59.76715 | 17.15831 | 8767 ft | 295 kts | 112° |
| 2026-05-05 17:29 | 59.75956 | 17.19602 | 8412 ft | 294 kts | 112° |
| 2026-05-05 17:30 | 59.75210 | 17.23303 | 8079 ft | 292 kts | 112° |
| 2026-05-05 17:30 | 59.74455 | 17.27029 | 7741 ft | 291 kts | 112° |
| 2026-05-05 17:30 | 59.73690 | 17.30728 | 7410 ft | 289 kts | 117° |
| 2026-05-05 17:30 | 59.72496 | 17.33830 | 7099 ft | 282 kts | 142° |
| 2026-05-05 17:31 | 59.70938 | 17.36166 | 6858 ft | 279 kts | 147° |
| 2026-05-05 17:31 | 59.69344 | 17.38379 | 6846 ft | 281 kts | 147° |
| 2026-05-05 17:31 | 59.67733 | 17.40589 | 6848 ft | 282 kts | 148° |
| 2026-05-05 17:31 | 59.66121 | 17.42795 | 6849 ft | 282 kts | 148° |
| 2026-05-05 17:32 | 59.64517 | 17.44988 | 6849 ft | 282 kts | 148° |
| 2026-05-05 17:32 | 59.62864 | 17.47102 | 6849 ft | 281 kts | 152° |
| 2026-05-05 17:32 | 59.61175 | 17.49043 | 6842 ft | 280 kts | 153° |
| 2026-05-05 17:32 | 59.59488 | 17.50958 | 6549 ft | 279 kts | 153° |
| 2026-05-05 17:33 | 59.57813 | 17.52857 | 6223 ft | 278 kts | 153° |
| 2026-05-05 17:33 | 59.56133 | 17.54751 | 5860 ft | 278 kts | 153° |
| 2026-05-05 17:33 | 59.54449 | 17.56630 | 5514 ft | 277 kts | 153° |
| 2026-05-05 17:33 | 59.52769 | 17.58495 | 5195 ft | 276 kts | 153° |
| 2026-05-05 17:34 | 59.51104 | 17.60339 | 4969 ft | 273 kts | 153° |
| 2026-05-05 17:34 | 59.49440 | 17.62176 | 4598 ft | 274 kts | 153° |
| 2026-05-05 17:34 | 59.47779 | 17.64000 | 4272 ft | 273 kts | 153° |
| 2026-05-05 17:34 | 59.46129 | 17.65802 | 4015 ft | 269 kts | 153° |
| 2026-05-05 17:35 | 59.44485 | 17.67593 | 3983 ft | 271 kts | 153° |
| 2026-05-05 17:35 | 59.42842 | 17.69437 | 3994 ft | 273 kts | 146° |
| 2026-05-05 17:35 | 59.41584 | 17.72133 | 3988 ft | 274 kts | 119° |
| 2026-05-05 17:35 | 59.40926 | 17.75626 | 3998 ft | 274 kts | 99° |
| 2026-05-05 17:36 | 59.40878 | 17.79354 | 3992 ft | 273 kts | 79° |
| 2026-05-05 17:36 | 59.41441 | 17.82881 | 4009 ft | 270 kts | 60° |
| 2026-05-05 17:36 | 59.42534 | 17.85829 | 4011 ft | 266 kts | 40° |
| 2026-05-05 17:36 | 59.44017 | 17.87931 | 3906 ft | 262 kts | 22° |
| 2026-05-05 17:37 | 59.45726 | 17.88991 | 3609 ft | 255 kts | 7° |
| 2026-05-05 17:37 | 59.46882 | 17.89403 | 3386 ft | 255 kts | 6° |
| 2026-05-05 17:37 | 59.49160 | 17.90214 | 2929 ft | 241 kts | 7° |
| 2026-05-05 17:37 | 59.50734 | 17.90783 | 2600 ft | 218 kts | 7° |
| 2026-05-05 17:38 | 59.52172 | 17.91301 | 2338 ft | 200 kts | 6° |
| 2026-05-05 17:38 | 59.53466 | 17.91768 | 2068 ft | 179 kts | 6° |
| 2026-05-05 17:38 | 59.54616 | 17.92183 | 1843 ft | 156 kts | 7° |
| 2026-05-05 17:38 | 59.55628 | 17.92546 | 1616 ft | 142 kts | 6° |
| 2026-05-05 17:39 | 59.56582 | 17.92876 | 1418 ft | 136 kts | 6° |
| 2026-05-05 17:39 | 59.57193 | 17.93097 | 1273 ft | 134 kts | 7° |
| 2026-05-05 17:39 | 59.58111 | 17.93442 | 1084 ft | 134 kts | 7° |
| 2026-05-05 17:39 | 59.59021 | 17.93770 | 925 ft | 132 kts | 7° |
| 2026-05-05 17:40 | 59.59931 | 17.94082 | 758 ft | 132 kts | 8° |
| 2026-05-05 17:40 | 59.60826 | 17.94415 | 561 ft | 130 kts | 10° |
| 2026-05-05 17:40 | 59.61710 | 17.94739 | 372 ft | 129 kts | 11° |
| 2026-05-05 17:40 | 59.62585 | 17.95057 | 202 ft | 127 kts | 11° |
| 2026-05-05 17:41 | 59.63392 | 17.95351 | 122 ft | 101 kts | 10° |
| 2026-05-05 17:41 | 59.63910 | 17.95535 | 114 ft | 41 kts | 10° |
| 2026-05-05 17:41 | 59.64151 | 17.95511 | 110 ft | 35 kts | 343° |
| 2026-05-05 17:41 | 59.64358 | 17.95371 | 106 ft | 29 kts | 341° |
| 2026-05-05 17:42 | 59.64419 | 17.95335 | 105 ft | 2 kts | 347° |
| 2026-05-05 17:42 | 59.64450 | 17.95329 | 105 ft | 8 kts | 359° |
| 2026-05-05 17:42 | 59.64533 | 17.95356 | 105 ft | 15 kts | 11° |
| 2026-05-05 17:42 | 59.64644 | 17.95396 | 105 ft | 18 kts | 11° |
| 2026-05-05 17:43 | 59.64770 | 17.95444 | 106 ft | 19 kts | 9° |
| 2026-05-05 17:43 | 59.64906 | 17.95491 | 109 ft | 21 kts | 11° |
| 2026-05-05 17:43 | 59.65051 | 17.95509 | 115 ft | 23 kts | 351° |
| 2026-05-05 17:43 | 59.65202 | 17.95436 | 117 ft | 21 kts | 347° |
| 2026-05-05 17:44 | 59.65326 | 17.95367 | 127 ft | 18 kts | 344° |
| 2026-05-05 17:44 | 59.65451 | 17.95299 | 126 ft | 20 kts | 345° |
| 2026-05-05 17:44 | 59.65593 | 17.95227 | 129 ft | 22 kts | 345° |
| 2026-05-05 17:44 | 59.65714 | 17.95154 | 128 ft | 16 kts | 332° |
| 2026-05-05 17:45 | 59.65738 | 17.94935 | 125 ft | 19 kts | 257° |
| 2026-05-05 17:45 | 59.65704 | 17.94657 | 121 ft | 22 kts | 256° |
| 2026-05-05 17:45 | 59.65665 | 17.94355 | 126 ft | 24 kts | 256° |
| 2026-05-05 17:45 | 59.65626 | 17.94034 | 118 ft | 24 kts | 256° |
| 2026-05-05 17:46 | 59.65583 | 17.93732 | 112 ft | 24 kts | 253° |
| 2026-05-05 17:46 | 59.65549 | 17.93422 | 112 ft | 24 kts | 256° |
| 2026-05-05 17:46 | 59.65509 | 17.93128 | 112 ft | 19 kts | 256° |
| 2026-05-05 17:46 | 59.65470 | 17.92882 | 110 ft | 16 kts | 246° |
| 2026-05-05 17:47 | 59.65423 | 17.92698 | 111 ft | 14 kts | 218° |
| 2026-05-05 17:47 | 59.65339 | 17.92728 | 112 ft | 12 kts | 150° |
| 2026-05-05 17:47 | 59.65258 | 17.92813 | 112 ft | 15 kts | 153° |
| 2026-05-05 17:47 | 59.65222 | 17.92883 | 112 ft | 6 kts | 93° |
| 2026-05-05 17:48 | 59.65232 | 17.92945 | 111 ft | 6 kts | 70° |
| 2026-05-05 17:48 | 59.65242 | 17.92994 | 112 ft | 2 kts | 70° |
| 2026-05-05 17:48 | 59.65242 | 17.92997 | 112 ft | 0 kts | 70° |